East Berkshire, New York
Current Conditions -  °F | °C
As of 5:53 PM on Friday 31 Oct 2014 (Local Time) from KBGM Reporting Station
Overcast Overcast  
Wind Chill:   Ceiling: 11000
Heat Index:   Visibility: 10mi
Dew Point: -1°   Wind: 6mph
Humidity: 56%   Direction: 40°NE
Pressure: 29.88"   Gusts: NA
Location:  42.3124°N, 76.194°W
Report Text: KBGM 312153Z 04005KT 10SM OVC110 07/M01 A2988 RMK AO2 SLP130 T00721011
Loading
Personal Weather Stations






























Interactive Weather Map
Tropical Storm Tracking
New forecast layout! Learn more

10-Day Weather Forecast

Advertisements
Track Severe Weather on mobile